KRHI/RHI METAR and TAF weather

Enter ICAO airport designator
Station Type Date Time Source
KRHI METAR 2019/12/10 18:53 UTC NOAA

KRHI 101853Z AUTO 27008KT 10SM OVC050 M14/M20 A2999 RMK AO2 SLP194 T11441200


Station Type Date Time Source
KRHI Decoded METAR 2019/12/10 18:53 UTC NOAA

RHINELANDER-ONEIDA CO AIRPORT , WI, United States (KRHI) 45-38N 89-29W 485M
Dec 10, 2019 - 01:53 PM EST / 2019.12.10 1853 UTC
Wind: from the W (270 degrees) at 9 MPH (8 KT):0
Visibility: 10 mile(s):0
Sky conditions: overcast
Temperature: 6.1 F (-14.4 C)
Windchill: -7 F (-22 C):2
Dew Point: -4.0 F (-20.0 C)
Relative Humidity: 62%
Pressure (altimeter): 29.99 in. Hg (1015 hPa)
ob: KRHI 101853Z AUTO 27008KT 10SM OVC050 M14/M20 A2999 RMK AO2 SLP194 T11441200
cycle: 19

Station Type Date Time Source
KRHI TAF 2019/12/10 18:22 UTC NOAA

TAF KRHI 101720Z 1018/1118 28009G15KT P6SM SCT019 BKN060
FM102200 27009G15KT P6SM SKC
FM110700 27012G20KT P6SM SKC

Example: see airport list